createdAt,value
2019-05-21T00:02:13.096Z,99446.72
2019-05-21T00:04:37.632Z,99438.66
2019-05-21T00:07:02.075Z,99449.98
2019-05-21T00:09:26.646Z,99446.62
2019-05-21T00:11:51.255Z,99450.67
2019-05-21T00:14:15.862Z,99448.97
2019-05-21T00:16:40.376Z,99444.30
2019-05-21T00:19:04.945Z,99449.80
2019-05-21T00:21:29.360Z,99451.02
2019-05-21T00:23:53.822Z,99458.13
2019-05-21T00:26:18.360Z,99455.07
2019-05-21T00:28:41.678Z,99456.84
2019-05-21T00:31:42.992Z,99455.84
2019-05-21T00:34:44.481Z,99460.37
2019-05-21T00:37:45.335Z,99459.64
2019-05-21T00:40:45.963Z,99459.86
2019-05-21T00:43:10.960Z,99462.66
2019-05-21T00:45:35.423Z,99462.43
2019-05-21T00:47:59.868Z,99458.66
2019-05-21T00:50:24.347Z,99462.88
2019-05-21T00:52:48.931Z,99458.98
2019-05-21T00:55:13.538Z,99454.69
2019-05-21T00:57:38.151Z,99455.75
2019-05-21T01:00:02.784Z,99457.19
2019-05-21T01:02:27.262Z,99465.44
2019-05-21T01:05:00.333Z,99466.20
2019-05-21T01:07:18.088Z,99459.52
2019-05-21T01:09:42.571Z,99460.49
2019-05-21T01:12:07.055Z,99470.62
2019-05-21T01:14:31.531Z,99468.31
2019-05-21T01:16:55.968Z,99466.16
2019-05-21T01:19:20.555Z,99472.08
2019-05-21T01:21:45.012Z,99466.92
2019-05-21T01:24:09.559Z,99469.98
2019-05-21T01:26:34.112Z,99478.23
2019-05-21T01:28:58.714Z,99468.55
2019-05-21T01:31:23.247Z,99471.20
2019-05-21T01:33:47.708Z,99474.92
2019-05-21T01:36:12.194Z,99469.66
2019-05-21T01:38:36.648Z,99470.96
2019-05-21T01:41:01.111Z,99475.48
2019-05-21T01:43:25.648Z,99472.27
2019-05-21T01:45:50.098Z,99472.06
2019-05-21T01:48:14.625Z,99479.70
2019-05-21T01:50:39.093Z,99492.91
2019-05-21T01:53:03.606Z,99488.03
2019-05-21T01:55:28.101Z,99494.70
2019-05-21T01:57:52.574Z,99501.27
2019-05-21T02:00:17.485Z,99497.04
2019-05-21T02:02:42.022Z,99495.63
2019-05-21T02:05:07.755Z,99492.38
2019-05-21T02:07:32.211Z,99489.22
2019-05-21T02:09:59.204Z,99487.48
2019-05-21T02:12:23.705Z,99488.55
2019-05-21T02:14:48.236Z,99490.44
2019-05-21T02:17:12.728Z,99489.83
2019-05-21T02:19:37.314Z,99489.47
2019-05-21T02:22:01.833Z,99487.55
2019-05-21T02:24:26.245Z,99488.03
2019-05-21T02:26:50.719Z,99486.38
2019-05-21T02:29:15.161Z,99491.98
2019-05-21T02:31:39.705Z,99487.95
2019-05-21T02:34:04.237Z,99496.23
2019-05-21T02:36:28.838Z,99498.63
2019-05-21T02:38:53.401Z,99494.94
2019-05-21T02:41:18.158Z,99489.97
2019-05-21T02:43:42.555Z,99493.80
2019-05-21T02:46:07.185Z,99492.19
2019-05-21T02:48:31.642Z,99483.50
2019-05-21T02:50:56.175Z,99488.80
2019-05-21T02:53:20.698Z,99480.90
2019-05-21T02:55:45.354Z,99472.84
2019-05-21T02:58:09.803Z,99474.66
2019-05-21T03:00:39.215Z,99487.48
2019-05-21T03:03:05.521Z,99493.56
2019-05-21T03:05:30.121Z,99489.77
2019-05-21T03:07:54.666Z,99473.67
2019-05-21T03:10:19.203Z,99496.68
2019-05-21T03:12:43.793Z,99500.94
2019-05-21T03:15:08.717Z,99503.28
2019-05-21T03:17:33.307Z,99501.00
2019-05-21T03:19:58.728Z,99500.13
2019-05-21T03:22:23.371Z,99496.64
2019-05-21T03:24:47.919Z,99496.44
2019-05-21T03:27:12.441Z,99496.91
2019-05-21T03:29:36.920Z,99495.06
2019-05-21T03:32:01.475Z,99505.33
2019-05-21T03:34:26.052Z,99504.83
2019-05-21T03:36:50.528Z,99512.97
2019-05-21T03:39:19.083Z,99517.20
2019-05-21T03:41:41.211Z,99520.02
2019-05-21T03:44:05.681Z,99521.55
2019-05-21T03:46:30.989Z,99530.51
2019-05-21T03:48:55.536Z,99527.29
2019-05-21T03:51:20.049Z,99531.02
2019-05-21T03:53:44.519Z,99531.28
2019-05-21T03:56:09.046Z,99533.62
2019-05-21T03:58:33.590Z,99531.88
2019-05-21T04:00:58.067Z,99534.09
2019-05-21T04:03:22.600Z,99537.66
2019-05-21T04:05:47.056Z,99537.52
2019-05-21T04:08:11.528Z,99540.33
2019-05-21T04:10:36.035Z,99542.67
2019-05-21T04:13:07.299Z,99550.59
2019-05-21T04:15:31.793Z,99549.95
2019-05-21T04:17:57.943Z,99548.31
2019-05-21T04:20:22.446Z,99552.64
2019-05-21T04:22:52.975Z,99550.14
2019-05-21T04:25:17.553Z,99558.03
2019-05-21T04:27:42.126Z,99556.86
2019-05-21T04:30:11.221Z,99562.33
2019-05-21T04:32:34.106Z,99559.06
2019-05-21T04:37:21.909Z,99568.05
2019-05-21T04:39:46.389Z,99561.94
2019-05-21T04:42:10.885Z,99566.77
2019-05-21T04:44:35.371Z,99570.09
2019-05-21T04:46:59.883Z,99567.44
2019-05-21T04:49:24.350Z,99572.09
2019-05-21T04:51:48.889Z,99576.36
2019-05-21T04:54:13.368Z,99578.03
2019-05-21T04:56:37.914Z,99582.31
2019-05-21T04:59:02.384Z,99580.61
2019-05-21T05:01:26.906Z,99576.13
2019-05-21T05:03:51.365Z,99580.24
2019-05-21T05:06:15.805Z,99574.13
2019-05-21T05:08:40.370Z,99578.70
2019-05-21T05:11:04.965Z,99593.05
2019-05-21T05:13:29.456Z,99591.00
2019-05-21T05:15:53.976Z,99596.80
2019-05-21T05:18:18.534Z,99587.89
2019-05-21T05:20:42.998Z,99600.47
2019-05-21T05:23:07.503Z,99606.88
2019-05-21T05:25:32.061Z,99606.09
2019-05-21T05:27:56.511Z,99616.94
2019-05-21T05:30:21.647Z,99614.79
2019-05-21T05:32:46.155Z,99613.52
2019-05-21T05:35:11.221Z,99615.60
2019-05-21T05:37:43.513Z,99610.08
2019-05-21T05:40:01.887Z,99612.95
2019-05-21T05:42:26.305Z,99607.25
2019-05-21T05:44:50.848Z,99603.97
2019-05-21T05:47:15.445Z,99599.57
2019-05-21T05:49:41.547Z,99604.53
2019-05-21T05:52:06.025Z,99583.56
2019-05-21T05:54:30.598Z,99616.30
2019-05-21T05:56:55.098Z,99613.72
2019-05-21T05:59:19.720Z,99613.23
2019-05-21T06:01:44.246Z,99617.89
2019-05-21T06:04:08.741Z,99626.73
2019-05-21T06:06:33.253Z,99623.03
2019-05-21T06:08:57.736Z,99623.73
2019-05-21T06:11:22.180Z,99630.08
2019-05-21T06:13:46.662Z,99630.46
2019-05-21T06:16:11.180Z,99634.08
2019-05-21T06:18:35.927Z,99633.13
2019-05-21T06:21:00.453Z,99630.69
2019-05-21T06:23:24.902Z,99636.19
2019-05-21T06:25:49.439Z,99637.38
2019-05-21T06:28:13.942Z,99643.53
2019-05-21T06:30:38.583Z,99642.50
2019-05-21T06:33:03.037Z,99643.25
2019-05-21T06:35:27.601Z,99637.88
2019-05-21T06:37:52.045Z,99644.91
2019-05-21T06:40:16.661Z,99650.57
2019-05-21T06:42:41.106Z,99613.60
2019-05-21T06:45:07.074Z,99648.05
2019-05-21T06:47:31.520Z,99652.16
2019-05-21T06:49:56.073Z,99656.27
2019-05-21T06:52:20.515Z,99663.16
2019-05-21T06:54:45.109Z,99662.36
2019-05-21T06:57:09.650Z,99666.60
2019-05-21T06:59:34.243Z,99669.05
2019-05-21T07:01:58.697Z,99675.92
2019-05-21T07:04:23.181Z,99670.03
2019-05-21T07:06:47.690Z,99674.19
2019-05-21T07:09:12.201Z,99680.04
2019-05-21T07:11:36.645Z,99682.71
2019-05-21T07:14:01.111Z,99684.54
2019-05-21T07:16:25.584Z,99680.49
2019-05-21T07:18:50.062Z,99683.91
2019-05-21T07:21:14.571Z,99693.27
2019-05-21T07:23:39.148Z,99687.61
2019-05-21T07:26:03.695Z,99698.44
2019-05-21T07:28:28.458Z,99693.69
2019-05-21T07:30:52.929Z,99699.23
2019-05-21T07:33:17.384Z,99701.08
2019-05-21T07:35:41.925Z,99705.21
2019-05-21T07:38:06.520Z,99704.60
2019-05-21T07:40:31.136Z,99706.70
2019-05-21T07:42:55.600Z,99706.98
2019-05-21T07:45:20.208Z,99713.08
2019-05-21T07:47:44.659Z,99720.05
2019-05-21T07:50:09.292Z,99714.77
2019-05-21T07:52:33.815Z,99719.52
2019-05-21T07:54:58.310Z,99724.91
2019-05-21T07:57:22.751Z,99727.53
2019-05-21T07:59:47.232Z,99725.96
2019-05-21T08:02:11.751Z,99730.25
2019-05-21T08:04:36.256Z,99734.72
2019-05-21T08:07:00.920Z,99735.89
2019-05-21T08:09:25.312Z,99736.33
2019-05-21T08:11:49.819Z,99733.31
2019-05-21T08:14:14.373Z,99727.52
2019-05-21T08:16:38.956Z,99735.20
2019-05-21T08:19:03.407Z,99732.16
2019-05-21T08:21:27.922Z,99733.22
2019-05-21T08:23:52.367Z,99733.31
2019-05-21T08:26:16.849Z,99735.21
2019-05-21T08:28:41.302Z,99734.25
2019-05-21T08:31:05.939Z,99742.77
2019-05-21T08:33:30.426Z,99730.20
2019-05-21T08:35:54.972Z,99735.36
2019-05-21T08:38:19.553Z,99733.11
2019-05-21T08:40:44.166Z,99734.11
2019-05-21T08:43:08.726Z,99734.98
2019-05-21T08:45:33.296Z,99743.23
2019-05-21T08:47:57.893Z,99734.31
2019-05-21T08:50:22.439Z,99742.98
2019-05-21T08:52:46.875Z,99740.03
2019-05-21T08:55:11.451Z,99734.23
2019-05-21T08:57:36.072Z,99738.52
2019-05-21T09:00:00.592Z,99734.87
2019-05-21T09:02:25.944Z,99734.16
2019-05-21T09:04:50.535Z,99735.12
2019-05-21T09:07:15.251Z,99735.65
2019-05-21T09:09:50.259Z,99740.17
2019-05-21T09:12:06.135Z,99736.09
2019-05-21T09:14:30.674Z,99745.03
2019-05-21T09:16:55.152Z,99739.86
2019-05-21T09:19:19.604Z,99745.64
2019-05-21T09:21:44.083Z,99749.94
2019-05-21T09:24:08.702Z,99753.66
2019-05-21T09:26:33.252Z,99750.77
2019-05-21T09:28:57.729Z,99756.59
2019-05-21T09:31:22.295Z,99755.23
2019-05-21T09:33:46.812Z,99761.81
2019-05-21T09:36:11.286Z,99762.28
2019-05-21T09:38:35.812Z,99768.34
2019-05-21T09:41:00.489Z,99774.06
2019-05-21T09:43:25.007Z,99774.84
2019-05-21T09:45:49.468Z,99781.67
2019-05-21T09:48:14.049Z,99782.38
2019-05-21T09:50:38.650Z,99780.41
2019-05-21T09:53:03.184Z,99778.55
2019-05-21T09:55:27.748Z,99779.90
2019-05-21T09:57:53.976Z,99779.94
2019-05-21T10:00:20.805Z,99784.33
2019-05-21T10:02:45.430Z,99788.05
2019-05-21T10:05:10.120Z,99791.86
2019-05-21T10:07:39.828Z,99792.55
2019-05-21T10:10:00.905Z,99800.34
2019-05-21T10:12:25.439Z,99767.83
2019-05-21T10:14:49.883Z,99803.27
2019-05-21T10:17:14.391Z,99808.42
2019-05-21T10:19:38.997Z,99804.73
2019-05-21T10:22:03.955Z,99808.17
2019-05-21T10:24:28.656Z,99812.16
2019-05-21T10:26:53.296Z,99811.48
2019-05-21T10:29:17.755Z,99814.86
2019-05-21T10:31:42.249Z,99820.92
2019-05-21T10:34:06.676Z,99826.77
2019-05-21T10:36:31.279Z,99825.20
2019-05-21T10:38:55.912Z,99819.03
2019-05-21T10:41:20.377Z,99821.30
2019-05-21T10:43:44.973Z,99824.53
2019-05-21T10:46:09.803Z,99829.98
2019-05-21T10:48:34.343Z,99831.17
2019-05-21T10:50:58.901Z,99838.05
2019-05-21T10:53:23.587Z,99838.82
2019-05-21T10:55:48.043Z,99838.54
2019-05-21T10:58:12.753Z,99835.74
2019-05-21T11:00:37.827Z,99846.23
2019-05-21T11:03:09.717Z,99849.02
2019-05-21T11:05:36.062Z,99850.29
2019-05-21T11:08:22.150Z,99850.55
2019-05-21T11:10:26.959Z,99847.50
2019-05-21T11:12:51.572Z,99855.60
2019-05-21T11:15:17.924Z,99860.65
2019-05-21T11:17:59.046Z,99850.72
2019-05-21T11:20:09.099Z,99864.27
2019-05-21T11:22:33.599Z,99866.63
2019-05-21T11:24:58.060Z,99860.12
2019-05-21T11:27:22.613Z,99861.38
2019-05-21T11:29:47.088Z,99862.02
2019-05-21T11:32:11.691Z,99865.58
2019-05-21T11:34:36.308Z,99861.20
2019-05-21T11:37:00.899Z,99863.59
2019-05-21T11:39:25.369Z,99859.78
2019-05-21T11:41:51.778Z,99858.27
2019-05-21T11:44:16.400Z,99862.43
2019-05-21T11:46:40.862Z,99861.94
2019-05-21T11:49:05.562Z,99861.94
2019-05-21T11:51:30.208Z,99864.66
2019-05-21T11:53:54.683Z,99863.02
2019-05-21T11:56:19.273Z,99867.87
2019-05-21T11:58:43.750Z,99871.30
2019-05-21T12:01:08.330Z,99868.31
2019-05-21T12:03:32.794Z,99862.77
2019-05-21T12:05:57.231Z,99863.27
2019-05-21T12:08:21.685Z,99861.42
2019-05-21T12:10:46.614Z,99872.48
2019-05-21T12:13:11.198Z,99869.56
2019-05-21T12:15:35.737Z,99876.61
2019-05-21T12:18:00.249Z,99870.04
2019-05-21T12:20:36.141Z,99876.34
2019-05-21T12:22:51.847Z,99881.86
2019-05-21T12:25:16.468Z,99883.97
2019-05-21T12:27:41.073Z,99885.41
2019-05-21T12:30:08.030Z,99882.00
2019-05-21T12:32:32.556Z,99877.95
2019-05-21T12:34:57.102Z,99877.16
2019-05-21T12:37:21.682Z,99877.16
2019-05-21T12:39:46.296Z,99886.05
2019-05-21T12:42:10.750Z,99879.28
2019-05-21T12:44:35.203Z,99875.47
2019-05-21T12:46:59.724Z,99874.74
2019-05-21T12:49:24.517Z,99879.98
2019-05-21T12:51:48.959Z,99874.43
2019-05-21T12:54:13.424Z,99882.08
2019-05-21T12:56:40.798Z,99883.17
2019-05-21T12:59:04.185Z,99888.70
2019-05-21T13:01:28.706Z,99886.80
2019-05-21T13:03:55.407Z,99885.68
2019-05-21T13:06:19.372Z,99887.66
2019-05-21T13:08:43.932Z,99895.14
2019-05-21T13:11:08.622Z,99903.53
2019-05-21T13:13:33.130Z,99913.78
2019-05-21T13:15:57.676Z,99914.81
2019-05-21T13:18:22.198Z,99919.39
2019-05-21T13:20:46.810Z,99918.68
2019-05-21T13:23:11.522Z,99912.83
2019-05-21T13:25:36.803Z,99927.25
2019-05-21T13:28:01.386Z,99927.25
2019-05-21T13:30:25.997Z,99927.70
2019-05-21T13:32:50.544Z,99927.10
2019-05-21T13:35:15.326Z,99924.41
2019-05-21T13:37:40.010Z,99927.91
2019-05-21T13:40:07.865Z,99935.28
2019-05-21T13:42:32.290Z,99934.38
2019-05-21T13:44:57.022Z,99935.28
2019-05-21T13:47:21.814Z,99935.23
2019-05-21T13:49:46.258Z,99941.98
2019-05-21T13:52:10.903Z,99935.34
2019-05-21T13:54:35.375Z,99934.22
2019-05-21T13:57:00.014Z,99939.67
2019-05-21T13:59:24.781Z,99934.43
2019-05-21T14:01:49.259Z,99942.59
2019-05-21T14:04:14.395Z,99939.67
2019-05-21T14:06:38.950Z,99945.39
2019-05-21T14:09:04.711Z,99942.39
2019-05-21T14:11:29.634Z,99944.03
2019-05-21T14:13:54.211Z,99950.54
2019-05-21T14:16:18.672Z,99947.37
2019-05-21T14:18:43.191Z,99951.25
2019-05-21T14:21:07.787Z,99950.98
2019-05-21T14:23:32.237Z,99951.70
2019-05-21T14:25:56.748Z,99948.95
2019-05-21T14:28:21.425Z,99948.26
2019-05-21T14:30:46.100Z,99953.17
2019-05-21T14:33:10.585Z,99950.25
2019-05-21T14:35:35.318Z,99949.83
2019-05-21T14:37:59.896Z,99959.14
2019-05-21T14:40:31.579Z,99960.02
2019-05-21T14:42:59.679Z,99963.41
2019-05-21T14:45:17.856Z,99966.68
2019-05-21T14:47:42.421Z,99970.50
2019-05-21T14:50:08.892Z,99965.97
2019-05-21T14:52:33.420Z,99965.86
2019-05-21T14:54:57.999Z,99975.88
2019-05-21T14:57:22.536Z,99969.47
2019-05-21T14:59:47.073Z,99972.81
2019-05-21T15:02:11.616Z,99966.48
2019-05-21T15:04:36.534Z,99964.61
2019-05-21T15:07:01.193Z,99966.66
2019-05-21T15:09:25.743Z,99967.95
2019-05-21T15:11:51.841Z,99972.08
2019-05-21T15:14:16.365Z,99966.58
2019-05-21T15:16:40.917Z,99969.69
2019-05-21T15:19:05.549Z,99969.59
2019-05-21T15:21:31.699Z,99977.61
2019-05-21T15:23:56.413Z,99970.28
2019-05-21T15:26:20.986Z,99966.25
2019-05-21T15:28:45.516Z,99975.68
2019-05-21T15:31:10.140Z,99973.97
2019-05-21T15:33:34.610Z,99966.30
2019-05-21T15:35:59.070Z,99966.59
2019-05-21T15:38:23.554Z,99978.27
2019-05-21T15:41:06.575Z,99982.20
2019-05-21T15:43:14.366Z,99978.37
2019-05-21T15:45:38.861Z,99978.22
2019-05-21T15:48:03.420Z,99989.77
2019-05-21T15:50:27.931Z,99996.98
2019-05-21T15:52:52.401Z,99998.57
2019-05-21T15:55:18.392Z,99998.23
2019-05-21T15:57:42.896Z,100002.28
2019-05-21T16:00:09.903Z,100006.95
2019-05-21T16:02:34.360Z,100005.89
2019-05-21T16:04:58.863Z,100012.70
2019-05-21T16:07:23.323Z,100004.46
2019-05-21T16:09:47.807Z,100016.91
2019-05-21T16:12:12.361Z,100012.83
2019-05-21T16:14:36.920Z,100017.86
2019-05-21T16:17:01.474Z,99955.30
2019-05-21T16:19:26.019Z,100019.28
2019-05-21T16:21:50.581Z,100028.48
2019-05-21T16:24:15.128Z,100025.23
2019-05-21T16:26:39.605Z,100027.98
2019-05-21T16:29:04.335Z,100028.73
2019-05-21T16:31:29.048Z,100025.75
2019-05-21T16:33:53.540Z,100021.82
2019-05-21T16:36:18.075Z,100030.82
2019-05-21T16:38:42.557Z,100032.58
2019-05-21T16:41:07.146Z,100036.38
2019-05-21T16:43:31.707Z,100030.77
2019-05-21T16:45:56.158Z,100037.48
2019-05-21T16:48:20.659Z,100033.55
2019-05-21T16:50:45.273Z,100040.48
2019-05-21T16:53:09.711Z,100038.72
2019-05-21T16:55:35.858Z,100049.27
2019-05-21T16:58:00.489Z,100047.28
2019-05-21T17:00:25.759Z,100050.55
2019-05-21T17:02:50.298Z,100059.98
2019-05-21T17:05:15.315Z,100061.70
2019-05-21T17:07:39.756Z,100063.36
2019-05-21T17:10:08.451Z,100061.73
2019-05-21T17:12:32.948Z,100057.81
2019-05-21T17:14:57.437Z,100060.33
2019-05-21T17:17:21.954Z,100062.08
2019-05-21T17:19:46.500Z,100028.25
2019-05-21T17:22:10.945Z,100067.94
2019-05-21T17:24:35.439Z,100071.13
2019-05-21T17:26:59.906Z,100069.40
2019-05-21T17:29:24.392Z,100073.09
2019-05-21T17:31:48.901Z,100076.33
2019-05-21T17:34:13.497Z,100078.91
2019-05-21T17:36:37.974Z,100085.30
2019-05-21T17:39:02.749Z,100087.87
2019-05-21T17:41:27.286Z,100097.63
2019-05-21T17:43:51.906Z,100097.06
2019-05-21T17:46:16.365Z,100099.38
2019-05-21T17:48:40.933Z,100106.34
2019-05-21T17:51:08.920Z,100095.58
2019-05-21T17:53:31.916Z,100099.91
2019-05-21T17:55:56.405Z,100101.30
2019-05-21T17:58:21.235Z,100109.50
2019-05-21T18:00:50.052Z,100110.46
2019-05-21T18:03:14.785Z,100121.05
2019-05-21T18:05:39.447Z,100127.97
2019-05-21T18:08:04.643Z,100123.18
2019-05-21T18:10:29.202Z,100132.52
2019-05-21T18:12:53.737Z,100136.50
2019-05-21T18:15:18.541Z,100124.84
2019-05-21T18:17:43.306Z,100125.34
2019-05-21T18:20:08.642Z,100135.11
2019-05-21T18:22:33.200Z,100136.83
2019-05-21T18:24:57.895Z,100147.05
2019-05-21T18:27:22.722Z,100150.39
2019-05-21T18:29:47.172Z,100147.80
2019-05-21T18:32:11.821Z,100157.27
2019-05-21T18:34:36.421Z,100166.27
2019-05-21T18:37:01.045Z,100175.64
2019-05-21T18:39:25.505Z,100167.20
2019-05-21T18:41:50.102Z,100174.85
2019-05-21T18:44:14.626Z,100172.55
2019-05-21T18:46:39.090Z,100177.56
2019-05-21T18:49:03.538Z,100173.84
2019-05-21T18:51:28.031Z,100181.98
2019-05-21T18:53:52.557Z,100188.81
2019-05-21T18:56:17.101Z,100186.96
2019-05-21T18:58:41.888Z,100180.35
2019-05-21T19:01:06.751Z,100190.36
2019-05-21T19:03:31.415Z,100186.27
2019-05-21T19:05:56.001Z,100191.78
2019-05-21T19:08:20.615Z,100202.35
2019-05-21T19:10:45.275Z,100208.03
2019-05-21T19:13:09.765Z,100198.70
2019-05-21T19:15:34.374Z,100216.13
2019-05-21T19:17:58.851Z,100211.09
2019-05-21T19:20:23.388Z,100215.27
2019-05-21T19:22:47.871Z,100219.41
2019-05-21T19:25:12.582Z,100222.41
2019-05-21T19:27:37.300Z,100224.62
2019-05-21T19:30:01.933Z,100232.35
2019-05-21T19:32:26.492Z,100232.96
2019-05-21T19:34:50.982Z,100238.59
2019-05-21T19:37:15.593Z,100230.55
2019-05-21T19:39:40.442Z,100241.05
2019-05-21T19:42:05.352Z,100240.75
2019-05-21T19:44:29.884Z,100240.69
2019-05-21T19:46:54.456Z,100251.19
2019-05-21T19:49:18.915Z,100252.59
2019-05-21T19:51:43.551Z,100248.93
2019-05-21T19:54:08.027Z,100245.62
2019-05-21T19:56:36.197Z,100243.91
2019-05-21T19:58:58.913Z,100246.64
2019-05-21T20:01:23.882Z,100249.23
2019-05-21T20:03:48.455Z,100249.55
2019-05-21T20:06:14.856Z,100241.70
2019-05-21T20:08:39.391Z,100208.27
2019-05-21T20:11:04.877Z,100245.36
2019-05-21T20:13:32.500Z,100250.92
2019-05-21T20:15:55.569Z,100253.80
2019-05-21T20:18:20.436Z,100251.65
2019-05-21T20:20:45.039Z,100252.96
2019-05-21T20:23:10.566Z,100253.00
2019-05-21T20:25:35.416Z,100252.16
2019-05-21T20:28:00.557Z,100257.84
2019-05-21T20:30:26.462Z,100253.20
2019-05-21T20:32:51.898Z,100257.81
2019-05-21T20:35:17.956Z,100258.55
2019-05-21T20:37:44.132Z,100258.11
2019-05-21T20:40:11.294Z,100259.96
2019-05-21T20:42:35.907Z,100262.34
2019-05-21T20:45:00.555Z,100264.13
2019-05-21T20:47:25.278Z,100266.61
2019-05-21T20:49:50.760Z,100264.94
2019-05-21T20:52:18.836Z,100259.20
2019-05-21T20:54:44.312Z,100266.97
2019-05-21T20:57:10.455Z,100260.73
2019-05-21T20:59:35.098Z,100265.88
2019-05-21T21:01:59.920Z,100266.38
2019-05-21T21:04:24.742Z,100265.02
2019-05-21T21:06:49.778Z,100265.06
2019-05-21T21:09:14.498Z,100258.94
2019-05-21T21:11:40.117Z,100260.91
2019-05-21T21:14:17.451Z,100258.17
2019-05-21T21:16:33.823Z,100267.44
2019-05-21T21:18:58.530Z,100259.56
2019-05-21T21:21:23.304Z,100262.18
2019-05-21T21:23:49.946Z,100262.66
2019-05-21T21:26:15.045Z,100266.55
2019-05-21T21:28:39.677Z,100263.97
2019-05-21T21:31:06.081Z,100258.84
2019-05-21T21:33:30.641Z,100256.28
2019-05-21T21:35:55.236Z,100265.86
2019-05-21T21:38:24.723Z,100258.99
2019-05-21T21:40:49.723Z,100259.23
2019-05-21T21:43:14.261Z,100263.72
2019-05-21T21:45:38.891Z,100266.61
2019-05-21T21:48:03.485Z,100266.45
2019-05-21T21:50:28.423Z,100276.02
2019-05-21T21:52:54.341Z,100280.61
2019-05-21T21:55:18.980Z,100273.85
2019-05-21T21:57:43.509Z,100277.37
2019-05-21T22:00:27.799Z,100282.06
2019-05-21T22:02:52.415Z,100280.17
2019-05-21T22:05:18.189Z,100285.92
2019-05-21T22:07:43.399Z,100287.93
2019-05-21T22:10:08.478Z,100292.08
2019-05-21T22:12:33.079Z,100295.82
2019-05-21T22:15:00.287Z,100298.00
2019-05-21T22:17:25.373Z,100302.38
2019-05-21T22:19:50.036Z,100303.63
2019-05-21T22:22:14.643Z,100298.77
2019-05-21T22:24:39.267Z,100307.28
2019-05-21T22:27:03.870Z,100303.62
2019-05-21T22:29:28.515Z,100308.23
2019-05-21T22:31:53.123Z,100313.40
2019-05-21T22:34:18.253Z,100315.34
2019-05-21T22:36:42.925Z,100311.98
2019-05-21T22:39:09.500Z,100319.72
2019-05-21T22:41:33.983Z,100311.17
2019-05-21T22:43:58.513Z,100316.08
2019-05-21T22:46:23.121Z,100312.73
2019-05-21T22:48:47.648Z,100313.97
2019-05-21T22:51:12.386Z,100307.33
2019-05-21T22:53:36.887Z,100314.01
2019-05-21T22:56:01.355Z,100315.83
2019-05-21T22:58:25.834Z,100323.13
2019-05-21T23:00:51.354Z,100318.66
2019-05-21T23:03:15.874Z,100279.27
2019-05-21T23:05:40.522Z,100315.06
2019-05-21T23:08:05.680Z,100321.89
2019-05-21T23:10:30.646Z,100325.33
2019-05-21T23:12:55.354Z,100329.83
2019-05-21T23:15:25.096Z,100325.32
2019-05-21T23:17:46.452Z,100321.15
2019-05-21T23:20:13.435Z,100321.31
2019-05-21T23:22:38.333Z,100322.72
2019-05-21T23:25:03.462Z,100325.29
2019-05-21T23:27:28.465Z,100317.10
2019-05-21T23:29:53.384Z,100322.91
2019-05-21T23:32:19.724Z,100322.60
2019-05-21T23:34:45.147Z,100325.75
2019-05-21T23:37:11.379Z,100273.05
2019-05-21T23:39:37.744Z,100314.95
2019-05-21T23:42:02.843Z,100313.97
2019-05-21T23:44:27.548Z,100322.77
2019-05-21T23:46:52.451Z,100321.69
2019-05-21T23:49:16.992Z,100321.42
2019-05-21T23:51:41.623Z,100315.73
2019-05-21T23:54:08.991Z,100322.43
2019-05-21T23:56:39.574Z,100316.16
2019-05-21T23:59:04.879Z,100319.83
